Time;durP1;ratioP1;P1;durP2;ratioP2;P2;SDS_P1;SDS_P2;PMS_P1;PMS_P2;Temp;Humidity;BMP_temperature;BMP_pressure;BME280_temperature;BME280_humidity;BME280_pressure;Samples;Min_cycle;Max_cycle;Signal;HPM_P1;HPM_P2
2024/01/16 05:07:54;;;;;;;2.65;2.33;;;;;;;0.58;89.99;68566.88;5286409;33;32221;-83
2024/01/16 05:10:58;;;;;;;2.65;2.45;;;;;;;0.60;90.37;68621.75;5288917;33;34192;-83
2024/01/16 05:14:01;;;;;;;2.80;2.42;;;;;;;0.48;90.98;68552.75;5300572;33;33306;-83
2024/01/16 05:17:04;;;;;;;2.85;2.47;;;;;;;0.50;91.14;68560.31;5305532;33;33711;-84
2024/01/16 05:20:08;;;;;;;2.47;2.28;;;;;;;0.50;90.36;68555.06;5282882;33;33045;-83
2024/01/16 05:23:11;;;;;;;3.28;2.97;;;;;;;0.62;88.53;68568.88;5297267;33;35049;-84
2024/01/16 05:26:13;;;;;;;4.55;2.78;;;;;;;0.60;89.24;68566.00;5290995;33;34405;-83
2024/01/16 05:29:18;;;;;;;3.30;2.87;;;;;;;0.72;87.64;68582.44;5283944;33;33393;-83
2024/01/16 05:32:21;;;;;;;2.95;2.75;;;;;;;0.67;87.11;68574.66;5269771;33;33862;-83
2024/01/16 05:35:24;;;;;;;3.65;2.72;;;;;;;0.61;87.83;68569.78;5265932;33;33013;-83
2024/01/16 05:38:27;;;;;;;8.05;2.60;;;;;;;0.68;87.15;68630.41;5265867;33;34428;-83
2024/01/16 05:41:34;;;;;;;2.90;2.60;;;;;;;0.64;87.18;68571.19;5290373;33;33396;-84
2024/01/16 05:44:40;;;;;;;2.80;2.45;;;;;;;0.70;85.12;68580.13;5290186;33;33996;-84
2024/01/16 05:47:43;;;;;;;3.37;3.08;;;;;;;0.69;84.46;68576.38;5277294;33;33400;-84
2024/01/16 05:50:45;;;;;;;3.50;3.10;;;;;;;0.68;84.71;68631.00;5272555;33;32988;-84
2024/01/16 05:53:49;;;;;;;5.07;2.67;;;;;;;0.68;84.10;68578.41;5288492;33;33767;-85
2024/01/16 05:56:51;;;;;;;5.37;3.72;;;;;;;0.66;84.70;68578.16;5297278;33;34451;-88
2024/01/16 05:59:55;;;;;;;2.67;2.47;;;;;;;0.62;85.03;68626.72;5266384;33;33447;-88
2024/01/16 06:02:58;;;;;;;4.40;3.08;;;;;;;0.58;84.78;68566.31;5269480;33;32908;-87
2024/01/16 06:06:01;;;;;;;3.37;2.80;;;;;;;0.52;84.78;68559.97;5293278;33;33163;-84
2024/01/16 06:09:05;;;;;;;6.00;2.85;;;;;;;0.55;83.85;68560.22;5295707;33;33414;-83
2024/01/16 06:12:08;;;;;;;4.20;2.70;;;;;;;0.45;83.89;68549.31;5307769;33;33351;-84
2024/01/16 06:15:14;;;;;;;3.05;2.55;;;;;;;0.33;84.98;68532.84;5308822;33;34480;-83
2024/01/16 06:18:17;;;;;;;5.40;2.97;;;;;;;0.34;84.22;68536.63;5296364;33;33366;-83
2024/01/16 06:21:20;;;;;;;3.70;2.53;;;;;;;0.35;84.66;68543.03;5309071;33;33847;-84
2024/01/16 06:24:26;;;;;;;3.72;2.83;;;;;;;0.29;84.90;68533.50;5308969;33;33540;-84
2024/01/16 06:27:29;;;;;;;3.62;3.15;;;;;;;0.31;84.57;68533.75;5282125;33;33360;-84
2024/01/16 06:30:32;;;;;;;3.65;2.55;;;;;;;0.31;83.31;68588.34;5283286;33;34463;-84
2024/01/16 06:33:35;;;;;;;5.65;2.30;;;;;;;0.31;84.16;68533.19;5295470;33;31651;-84
2024/01/16 06:36:38;;;;;;;2.83;2.45;;;;;;;0.29;84.06;68531.44;5296605;33;33282;-83
2024/01/16 06:39:41;;;;;;;2.87;2.62;;;;;;;0.15;85.44;68513.28;5306240;33;34040;-83
2024/01/16 06:42:44;;;;;;;3.70;3.22;;;;;;;0.21;84.69;68522.81;5297421;33;33238;-84
2024/01/16 06:45:47;;;;;;;2.50;2.30;;;;;;;0.25;83.97;68528.88;5289561;33;33374;-84
2024/01/16 06:48:50;;;;;;;2.70;2.50;;;;;;;0.25;83.65;68528.88;5298685;33;33753;-84
2024/01/16 06:51:53;;;;;;;6.78;3.37;;;;;;;0.24;83.43;68523.06;5311922;33;33000;-84
2024/01/16 06:54:56;;;;;;;3.25;2.75;;;;;;;0.26;84.14;68530.03;5303109;33;33598;-84
2024/01/16 06:57:59;;;;;;;5.25;3.12;;;;;;;0.30;83.39;68534.66;5293832;33;33424;-84
2024/01/16 07:01:03;;;;;;;3.40;3.10;;;;;;;0.32;83.20;68540.16;5293784;33;33387;-84
2024/01/16 07:04:06;;;;;;;4.90;2.90;;;;;;;0.32;82.31;68539.56;5307390;33;32992;-84
2024/01/16 07:07:09;;;;;;;2.97;2.78;;;;;;;0.38;82.17;68593.78;5293993;33;33389;-84
2024/01/16 07:10:17;;;;;;;3.40;3.10;;;;;;;0.47;80.34;68551.00;5282727;33;33306;-83
2024/01/16 07:13:21;;;;;;;5.10;2.60;;;;;;;0.61;79.20;68570.34;5295271;33;33289;-84
2024/01/16 07:16:23;;;;;;;3.15;2.37;;;;;;;0.65;77.93;68572.34;5299872;33;33227;-83
2024/01/16 07:19:27;;;;;;;3.70;2.92;;;;;;;0.77;77.30;68582.97;5281124;33;33399;-83
2024/01/16 07:22:30;;;;;;;3.20;2.67;;;;;;;0.90;75.56;68603.19;5317007;33;33226;-84
2024/01/16 07:25:33;;;;;;;3.87;2.95;;;;;;;1.02;74.80;68613.81;5284566;33;33472;-84
2024/01/16 07:28:36;;;;;;;3.22;2.55;;;;;;;1.13;73.46;68626.47;5307264;33;33432;-84
2024/01/16 07:31:42;;;;;;;3.90;3.08;;;;;;;1.28;72.07;68645.81;5283189;33;33065;-83
2024/01/16 07:34:45;;;;;;;3.47;1.98;;;;;;;1.48;70.38;68667.75;5284910;33;33275;-84
2024/01/16 07:37:48;;;;;;;5.45;2.70;;;;;;;1.66;68.58;68685.28;5287115;33;33578;-84
2024/01/16 07:40:51;;;;;;;2.85;2.40;;;;;;;1.80;69.61;68701.44;5311374;33;33434;-84
2024/01/16 07:43:54;;;;;;;4.12;2.47;;;;;;;1.93;67.31;68716.44;5293770;33;34533;-84
2024/01/16 07:46:56;;;;;;;5.37;2.78;;;;;;;2.08;65.73;68732.56;5284818;33;33847;-83
2024/01/16 07:50:00;;;;;;;4.60;2.22;;;;;;;2.29;65.65;68756.22;5318251;33;32966;-84
2024/01/16 07:53:05;;;;;;;2.97;2.35;;;;;;;2.62;62.63;68793.72;5324776;33;34183;-83
2024/01/16 07:56:09;;;;;;;2.65;2.45;;;;;;;2.90;61.33;68828.69;5310864;33;34781;-84
2024/01/16 07:59:12;;;;;;;3.00;2.70;;;;;;;3.12;60.44;68855.56;5298171;33;33401;-84
2024/01/16 08:02:15;;;;;;;2.40;2.20;;;;;;;2.97;61.33;68835.63;5297237;33;33128;-84
2024/01/16 08:05:21;;;;;;;3.03;2.42;;;;;;;2.77;61.78;68868.50;5310400;33;34104;-84
2024/01/16 08:08:24;;;;;;;3.62;2.75;;;;;;;2.59;63.12;68790.84;5295130;33;33278;-88
2024/01/16 08:11:27;;;;;;;3.00;2.30;;;;;;;2.52;62.77;68785.41;5302061;33;32831;-88
2024/01/16 08:14:31;;;;;;;4.00;2.30;;;;;;;2.42;64.48;68774.44;5276746;33;34023;-84
2024/01/16 08:17:35;;;;;;;2.75;2.12;;;;;;;2.26;64.42;68756.56;5278666;33;33672;-84
2024/01/16 08:20:37;;;;;;;3.78;2.50;;;;;;;2.30;64.33;68760.59;5297671;33;33116;-84
2024/01/16 08:23:40;;;;;;;2.47;2.28;;;;;;;2.37;63.94;68768.69;5304153;33;33859;-84
2024/01/16 08:26:44;;;;;;;2.87;2.22;;;;;;;2.54;63.29;68787.13;5312798;33;33777;-84
2024/01/16 08:29:49;;;;;;;3.60;2.47;;;;;;;2.48;62.77;68781.34;5313329;33;33489;-83
2024/01/16 08:32:52;;;;;;;3.17;2.83;;;;;;;2.29;63.83;68756.22;5316337;33;33060;-83
2024/01/16 08:35:56;;;;;;;3.83;2.67;;;;;;;2.15;63.95;68743.84;5279715;33;33308;-84
2024/01/16 08:38:58;;;;;;;8.13;2.50;;;;;;;2.11;63.68;68736.03;5276433;33;33638;-84
2024/01/16 08:42:03;;;;;;;3.83;2.35;;;;;;;2.11;63.66;68736.03;5288208;33;33333;-84
2024/01/16 08:45:06;;;;;;;4.20;2.85;;;;;;;2.15;64.62;68743.28;5293887;33;33305;-84
2024/01/16 08:48:09;;;;;;;4.87;2.70;;;;;;;2.23;63.90;68807.84;5323974;33;33170;-84
2024/01/16 08:51:12;;;;;;;4.72;2.58;;;;;;;2.32;63.98;68762.91;5306916;33;33391;-84
2024/01/16 08:54:15;;;;;;;6.05;2.85;;;;;;;2.57;63.23;68790.59;5308194;33;34548;-84
2024/01/16 08:57:20;;;;;;;4.43;2.42;;;;;;;2.50;63.30;68788.94;5307940;33;33483;-84
2024/01/16 09:00:29;;;;;;;4.18;2.50;;;;;;;2.58;63.27;68789.69;5284896;33;33361;-83
2024/01/16 09:03:33;;;;;;;4.00;2.90;;;;;;;2.66;61.38;68801.56;5284892;33;33179;-83
2024/01/16 09:06:36;;;;;;;5.95;2.22;;;;;;;2.68;60.64;68803.84;5296302;33;33316;-83
2024/01/16 09:09:41;;;;;;;3.62;2.55;;;;;;;2.65;59.96;68799.81;5301319;33;34444;-83
2024/01/16 09:12:44;;;;;;;3.37;2.30;;;;;;;2.71;59.98;68807.31;5315070;33;33048;-84
2024/01/16 09:15:48;;;;;;;5.25;2.92;;;;;;;2.78;58.64;68820.13;5293633;33;34533;-84
2024/01/16 09:18:52;;;;;;;2.97;2.30;;;;;;;2.64;58.91;68801.31;5307632;33;33207;-83
2024/01/16 09:21:57;;;;;;;3.92;2.40;;;;;;;2.56;58.30;68786.81;5307855;33;33154;-83
2024/01/16 09:25:01;;;;;;;6.70;3.30;;;;;;;2.45;59.23;68774.69;5307404;33;34012;-84
2024/01/16 09:28:04;;;;;;;3.00;2.62;;;;;;;2.42;59.43;68773.84;5294220;33;33509;-84
2024/01/16 09:31:07;;;;;;;3.58;2.40;;;;;;;2.29;59.66;68762.06;5294337;33;34035;-84
2024/01/16 09:34:13;;;;;;;5.37;2.62;;;;;;;2.48;59.23;68778.13;5295020;33;34309;-84
2024/01/16 09:37:16;;;;;;;5.28;2.40;;;;;;;2.63;58.40;68798.09;5308595;33;34151;-84
2024/01/16 09:40:18;;;;;;;2.78;2.33;;;;;;;2.93;58.02;68886.97;5303537;33;33305;-83
2024/01/16 09:43:22;;;;;;;6.47;2.65;;;;;;;3.03;56.75;68840.47;5330223;33;33362;-83
2024/01/16 09:46:26;;;;;;;11.27;2.37;;;;;;;3.17;56.33;68859.28;5321594;33;34075;-83
2024/01/16 09:49:30;;;;;;;3.05;2.12;;;;;;;3.33;54.81;68882.44;5340729;33;34912;-85
2024/01/16 09:52:33;;;;;;;3.58;2.37;;;;;;;3.38;53.35;68937.81;5337295;33;34793;-84
2024/01/16 09:55:36;;;;;;;5.57;2.17;;;;;;;3.36;54.34;68880.06;5307315;33;33312;-83
2024/01/16 09:58:39;;;;;;;3.22;1.92;;;;;;;3.62;52.16;68910.09;5299011;33;35177;-84
2024/01/16 10:01:43;;;;;;;3.03;2.67;;;;;;;3.86;51.81;68992.75;5317352;33;32826;-84
2024/01/16 10:04:46;;;;;;;7.05;3.45;;;;;;;3.62;51.75;68962.91;5301342;33;33413;-84
2024/01/16 10:07:50;;;;;;;4.03;2.03;;;;;;;3.58;52.21;68958.31;5310913;33;34565;-83
2024/01/16 10:10:53;;;;;;;5.40;2.03;;;;;;;3.70;52.81;68915.56;5300367;33;33444;-86
2024/01/16 10:13:58;;;;;;;5.65;2.42;;;;;;;3.97;51.72;68949.38;5294093;33;34489;-86
2024/01/16 10:17:05;;;;;;;4.72;2.20;;;;;;;4.11;50.43;69020.50;5306300;33;33400;-87
2024/01/16 10:20:13;;;;;;;4.37;2.30;;;;;;;4.36;49.90;68990.66;5298300;33;33294;-82
2024/01/16 10:23:23;;;;;;;3.17;2.70;;;;;;;4.27;50.38;68982.91;5301234;33;33057;-82
2024/01/16 10:26:26;;;;;;;2.50;2.20;;;;;;;4.31;50.50;68988.09;5306943;33;33624;-82
2024/01/16 10:29:32;;;;;;;7.47;2.95;;;;;;;4.36;49.69;68993.31;5295630;33;33578;-81
2024/01/16 10:32:51;;;;;;;8.77;2.50;;;;;;;4.10;50.23;68963.84;5307040;33;34004;-81
2024/01/16 10:36:16;;;;;;;4.93;3.10;;;;;;;3.94;49.98;68948.56;5278568;33;33467;-82
2024/01/16 10:39:20;;;;;;;5.05;2.33;;;;;;;3.74;50.44;68923.38;5293763;33;33321;-82
2024/01/16 10:42:27;;;;;;;3.00;2.75;;;;;;;3.62;51.27;68962.34;5311054;33;33403;-82
2024/01/16 10:45:31;;;;;;;5.30;2.50;;;;;;;3.67;51.14;68912.66;5301158;33;33408;-82
2024/01/16 10:48:34;;;;;;;6.03;2.55;;;;;;;3.57;51.96;68901.69;5309614;33;34142;-82
2024/01/16 10:51:39;;;;;;;3.35;2.33;;;;;;;3.79;51.72;68984.66;5294053;33;33414;-82
2024/01/16 10:54:44;;;;;;;2.40;2.20;;;;;;;3.94;50.40;69000.84;5302713;33;33364;-82
2024/01/16 10:57:49;;;;;;;2.30;2.10;;;;;;;3.96;50.60;68948.22;5282912;33;33161;-82
2024/01/16 11:00:53;;;;;;;2.67;2.08;;;;;;;4.16;49.88;68967.56;5324497;33;34306;-82
2024/01/16 11:03:59;;;;;;;2.15;2.03;;;;;;;4.29;50.25;68988.44;5299788;33;33364;-83
2024/01/16 11:07:04;;;;;;;5.37;2.10;;;;;;;4.18;49.05;68970.44;5311434;33;34429;-82
2024/01/16 11:10:08;;;;;;;5.97;2.22;;;;;;;4.04;49.64;68954.84;5298399;33;33627;-82
2024/01/16 11:13:13;;;;;;;5.07;2.42;;;;;;;4.23;49.13;69033.81;5305610;33;33656;-82
2024/01/16 11:16:18;;;;;;;4.22;2.60;;;;;;;4.35;48.71;69047.09;5306663;33;34257;-82
2024/01/16 11:19:21;;;;;;;4.12;2.47;;;;;;;4.54;48.97;69016.19;5292677;33;33463;-83
2024/01/16 11:22:45;;;;;;;2.67;2.03;;;;;;;4.69;47.71;69033.53;5296312;33;33001;-84
2024/01/16 11:25:49;;;;;;;3.30;2.50;;;;;;;4.45;48.02;69001.06;5305893;33;34267;-83
2024/01/16 11:28:53;;;;;;;3.08;2.05;;;;;;;4.48;47.96;69062.72;5281609;33;34562;-84
2024/01/16 11:31:58;;;;;;;3.30;2.72;;;;;;;4.32;47.81;68989.25;5294205;33;34255;-82
2024/01/16 11:35:04;;;;;;;4.22;2.12;;;;;;;4.60;47.92;69022.56;5293571;33;34197;-83
2024/01/16 11:38:16;;;;;;;7.03;2.45;;;;;;;5.18;46.72;69083.75;5292690;33;34308;-82
2024/01/16 11:41:51;;;;;;;2.22;2.08;;;;;;;5.63;45.69;69139.38;5292243;33;34468;-82
2024/01/16 11:44:55;;;;;;;4.68;3.05;;;;;;;5.51;45.27;69120.22;5319468;33;33350;-82
2024/01/16 11:48:15;;;;;;;2.35;2.00;;;;;;;5.64;44.77;69138.47;5288657;33;33769;-83
2024/01/16 11:51:24;;;;;;;2.83;1.90;;;;;;;5.49;44.36;69121.09;5312262;33;33736;-82
2024/01/16 11:54:28;;;;;;;2.90;2.08;;;;;;;5.93;43.27;69173.56;5292160;33;34069;-82
2024/01/16 11:58:05;;;;;;;2.72;2.40;;;;;;;6.34;43.02;69220.44;5287868;33;33658;-82
2024/01/16 12:01:08;;;;;;;2.20;1.95;;;;;;;6.32;42.25;69215.50;5289964;33;33701;-83
2024/01/16 12:04:14;;;;;;;5.97;2.87;;;;;;;6.75;40.97;69263.53;5287811;33;34529;-82
2024/01/16 12:07:17;;;;;;;2.95;2.03;;;;;;;7.11;40.35;69360.47;5275655;33;33335;-82
2024/01/16 12:10:25;;;;;;;3.90;2.10;;;;;;;8.08;38.52;69412.16;5288440;33;33545;-82
2024/01/16 12:13:27;;;;;;;2.55;2.00;;;;;;;7.69;38.34;69370.75;5290098;33;33316;-85
2024/01/16 12:16:30;;;;;;;4.78;2.17;;;;;;;8.08;38.30;69414.81;5289679;33;33430;-86
2024/01/16 12:19:33;;;;;;;4.47;2.42;;;;;;;8.54;36.90;69469.72;5289879;33;33800;-86
2024/01/16 12:22:37;;;;;;;2.85;2.03;;;;;;;9.64;35.30;69594.50;5295375;33;33782;-83
2024/01/16 12:25:40;;;;;;;3.35;1.80;;;;;;;10.16;34.70;69653.19;5294925;33;34235;-83
2024/01/16 12:29:03;;;;;;;3.65;2.12;;;;;;;10.35;33.67;69675.28;5290573;33;34403;-82
2024/01/16 12:32:10;;;;;;;1.75;1.65;;;;;;;9.76;33.74;69605.78;5315752;33;33032;-82
2024/01/16 12:35:19;;;;;;;4.60;1.77;;;;;;;9.95;33.62;69629.94;5329731;33;34735;-82
2024/01/16 12:38:23;;;;;;;3.08;2.00;;;;;;;10.91;32.66;69738.66;5296956;33;33526;-81
2024/01/16 12:41:41;;;;;;;4.62;2.10;;;;;;;11.62;32.17;69816.78;5304336;33;33816;-82
2024/01/16 12:44:46;;;;;;;2.65;1.83;;;;;;;12.23;30.79;69888.75;5302985;33;33726;-82
2024/01/16 12:47:53;;;;;;;2.70;1.92;;;;;;;14.38;28.44;70130.72;5308393;33;32985;-82
2024/01/16 12:51:03;;;;;;;3.47;1.58;;;;;;;14.93;26.79;70197.00;5295984;33;33561;-82
2024/01/16 12:54:15;;;;;;;1.23;1.12;;;;;;;14.25;26.67;70119.44;5309694;33;33969;-82
2024/01/16 12:57:19;;;;;;;2.12;1.40;;;;;;;14.61;25.91;70157.00;5309255;33;33564;-82
2024/01/16 13:00:25;;;;;;;3.62;1.92;;;;;;;15.26;25.10;70233.75;5315802;33;32887;-82
2024/01/16 13:03:28;;;;;;;5.75;1.40;;;;;;;14.58;25.50;70153.50;5308112;33;32995;-82
2024/01/16 13:06:31;;;;;;;4.95;1.40;;;;;;;14.93;25.31;70201.81;5271455;33;33277;-82
2024/01/16 13:09:35;;;;;;;2.22;1.30;;;;;;;16.07;23.83;70329.84;5294776;33;33228;-82
2024/01/16 13:12:38;;;;;;;2.10;1.52;;;;;;;14.40;24.76;70141.72;5310761;33;33385;-82
2024/01/16 13:15:42;;;;;;;1.65;1.20;;;;;;;11.27;28.39;69782.03;5307998;33;34074;-82
2024/01/16 13:18:46;;;;;;;6.45;1.70;;;;;;;11.21;29.01;69775.03;5295117;33;32995;-82
2024/01/16 13:21:49;;;;;;;3.78;1.55;;;;;;;9.92;30.82;69623.78;5294997;33;33739;-81
2024/01/16 13:24:52;;;;;;;3.15;1.30;;;;;;;7.43;34.50;69346.50;5295989;33;32964;-82
2024/01/16 13:28:07;;;;;;;1.87;1.23;;;;;;;6.82;35.48;69274.31;5304218;33;33100;-82
2024/01/16 13:31:10;;;;;;;1.95;1.30;;;;;;;6.36;36.63;69220.13;5311422;33;34509;-86
2024/01/16 13:34:14;;;;;;;1.40;1.35;;;;;;;5.76;37.30;69151.19;5322215;33;33731;-86
2024/01/16 13:37:21;;;;;;;4.60;1.65;;;;;;;5.51;38.58;69122.84;5297691;33;34673;-86
2024/01/16 13:40:24;;;;;;;1.73;1.27;;;;;;;5.57;38.11;69130.38;5308098;33;33540;-82
2024/01/16 13:43:27;;;;;;;3.22;1.20;;;;;;;5.37;38.84;69107.22;5295337;33;34222;-82
2024/01/16 13:46:30;;;;;;;1.33;1.23;;;;;;;5.28;39.21;69096.81;5316439;33;33151;-84
2024/01/16 13:49:53;;;;;;;2.10;1.42;;;;;;;5.02;39.61;69067.88;5296326;33;34138;-84
2024/01/16 13:52:56;;;;;;;1.75;1.45;;;;;;;4.71;39.93;69032.59;5292327;33;33082;-83
2024/01/16 13:55:59;;;;;;;3.62;1.58;;;;;;;4.63;40.57;69023.94;5297889;33;33108;-83
2024/01/16 13:59:02;;;;;;;2.28;1.27;;;;;;;4.40;41.59;69000.00;5298667;33;33529;-83
2024/01/16 14:02:06;;;;;;;1.20;1.10;;;;;;;4.32;40.90;68991.91;5295327;33;33408;-82
2024/01/16 14:05:17;;;;;;;2.28;1.33;;;;;;;4.18;41.34;68972.50;5295027;33;34217;-83
2024/01/16 14:08:21;;;;;;;1.02;1.02;;;;;;;4.04;41.78;68954.84;5307959;33;33568;-83
2024/01/16 14:11:24;;;;;;;1.30;1.20;;;;;;;4.07;41.81;68963.59;5308998;33;33370;-83
2024/01/16 14:14:27;;;;;;;2.78;1.33;;;;;;;4.10;42.08;68963.84;5296004;33;33394;-83
2024/01/16 14:17:30;;;;;;;3.40;1.50;;;;;;;4.12;41.55;68968.19;5286185;33;33663;-83
2024/01/16 14:20:38;;;;;;;1.25;1.20;;;;;;;4.16;41.46;69026.28;5310587;33;34363;-82
2024/01/16 14:23:41;;;;;;;1.45;1.35;;;;;;;4.05;43.14;68955.41;5307883;33;33237;-83
2024/01/16 14:26:45;;;;;;;1.42;1.12;;;;;;;4.15;41.60;68969.59;5296599;33;33209;-83
2024/01/16 14:29:50;;;;;;;6.85;1.30;;;;;;;4.16;41.49;68968.13;5295761;33;34220;-83
2024/01/16 14:32:53;;;;;;;2.65;1.10;;;;;;;4.02;43.38;68957.81;5294541;33;33411;-83
2024/01/16 14:35:56;;;;;;;1.35;1.10;;;;;;;3.93;42.87;68999.69;5294748;33;33743;-83
2024/01/16 14:39:02;;;;;;;1.77;1.15;;;;;;;3.90;43.16;68940.72;5307881;33;33487;-83
2024/01/16 14:42:05;;;;;;;1.85;1.30;;;;;;;3.80;43.54;68985.81;5307803;33;34174;-83
2024/01/16 14:45:11;;;;;;;3.45;1.40;;;;;;;3.68;43.52;68916.44;5296320;33;33537;-83
2024/01/16 14:48:15;;;;;;;1.55;1.40;;;;;;;3.80;42.94;68930.31;5295254;33;33088;-83
2024/01/16 14:51:18;;;;;;;1.98;1.80;;;;;;;3.71;43.51;68919.91;5307593;33;34354;-83
2024/01/16 14:54:21;;;;;;;5.50;1.73;;;;;;;3.62;43.76;68910.09;5302399;33;34546;-84
2024/01/16 14:57:25;;;;;;;4.30;1.37;;;;;;;3.74;43.26;68923.38;5311607;33;33229;-84
2024/01/16 15:00:29;;;;;;;2.87;1.62;;;;;;;3.69;44.10;68917.63;5312213;33;33570;-83
2024/01/16 15:03:31;;;;;;;1.33;1.23;;;;;;;3.59;44.02;68908.69;5287749;33;33581;-83
2024/01/16 15:06:35;;;;;;;1.85;1.50;;;;;;;3.53;43.93;68899.69;5305893;33;33793;-83
2024/01/16 15:09:39;;;;;;;3.15;1.65;;;;;;;3.43;44.70;68887.59;5307810;33;33662;-83
2024/01/16 15:12:44;;;;;;;3.45;2.00;;;;;;;3.32;44.85;68872.81;5277436;33;33068;-84
2024/01/16 15:15:47;;;;;;;5.18;2.00;;;;;;;3.31;44.81;68877.50;5290130;33;33525;-88
2024/01/16 15:18:50;;;;;;;3.78;1.80;;;;;;;3.27;45.34;68872.31;5289729;33;33101;-88
2024/01/16 15:21:53;;;;;;;4.93;2.25;;;;;;;3.16;45.51;68855.50;5313201;33;34086;-88
2024/01/16 15:24:56;;;;;;;2.85;2.08;;;;;;;3.03;46.67;68843.13;5311465;33;34284;-88
2024/01/16 15:27:59;;;;;;;3.55;2.10;;;;;;;2.86;47.39;68824.06;5303978;33;34830;-83
2024/01/16 15:31:06;;;;;;;4.85;2.17;;;;;;;2.85;45.97;68822.91;5320027;33;140759;-83
2024/01/16 15:34:10;;;;;;;7.25;2.45;;;;;;;2.78;46.70;68812.19;5312699;33;33950;-83
2024/01/16 15:37:18;;;;;;;2.60;2.40;;;;;;;2.80;46.77;68819.19;5333194;33;33267;-84
2024/01/16 15:40:22;;;;;;;4.72;2.45;;;;;;;2.68;47.91;68803.28;5303731;33;33952;-83
2024/01/16 15:43:25;;;;;;;3.50;2.40;;;;;;;2.69;47.83;68804.44;5312406;33;32942;-83
2024/01/16 15:46:28;;;;;;;2.80;2.60;;;;;;;2.57;48.93;68791.16;5311335;33;32963;-83
2024/01/16 15:49:31;;;;;;;4.43;2.47;;;;;;;2.47;49.54;68777.56;5311381;33;33437;-83
2024/01/16 15:52:34;;;;;;;21.42;2.92;;;;;;;2.26;50.29;68755.97;5311159;33;33341;-83
2024/01/16 15:55:38;;;;;;;5.18;2.30;;;;;;;2.09;51.07;68736.38;5328532;33;32963;-83
2024/01/16 15:58:41;;;;;;;4.37;2.65;;;;;;;1.92;51.65;68773.22;5326294;33;33334;-83
2024/01/16 16:01:44;;;;;;;4.75;2.83;;;;;;;1.79;52.38;68700.28;5304051;33;33832;-83
2024/01/16 16:04:47;;;;;;;5.32;2.50;;;;;;;1.69;53.53;68689.31;5306475;33;33041;-83
2024/01/16 16:07:49;;;;;;;5.03;2.45;;;;;;;1.61;53.87;68680.09;5294324;33;34014;-83
2024/01/16 16:10:52;;;;;;;5.00;2.60;;;;;;;1.54;54.12;68674.66;5306639;33;33589;-83
2024/01/16 16:13:55;;;;;;;8.70;4.40;;;;;;;1.42;56.12;68658.75;5294587;33;32919;-83
2024/01/16 16:17:01;;;;;;;4.05;2.72;;;;;;;1.41;55.02;68660.25;5295288;33;33416;-82
2024/01/16 16:20:05;;;;;;;6.85;3.00;;;;;;;1.55;54.29;68681.06;5306837;33;33819;-83
2024/01/16 16:23:08;;;;;;;4.72;2.65;;;;;;;1.42;54.90;68660.81;5282601;33;33335;-83
2024/01/16 16:26:11;;;;;;;7.93;2.72;;;;;;;1.49;55.86;68668.88;5293053;33;34050;-83
2024/01/16 16:29:14;;;;;;;5.45;3.33;;;;;;;1.54;54.57;68675.22;5293100;33;33360;-83
2024/01/16 16:32:17;;;;;;;6.25;3.37;;;;;;;1.49;54.84;68664.22;5305996;33;33531;-83
2024/01/16 16:35:20;;;;;;;4.87;3.33;;;;;;;1.49;55.22;68674.75;5305984;33;35159;-83
2024/01/16 16:38:23;;;;;;;4.40;2.40;;;;;;;1.28;57.57;68645.81;5293255;33;33146;-83
2024/01/16 16:41:27;;;;;;;6.55;2.70;;;;;;;1.21;56.67;68637.19;5293255;33;34727;-83
2024/01/16 16:44:30;;;;;;;6.35;2.70;;;;;;;1.17;56.63;68633.16;5305739;33;33347;-83
2024/01/16 16:47:33;;;;;;;4.07;2.40;;;;;;;1.15;56.46;68627.66;5292950;33;33405;-83
2024/01/16 16:50:36;;;;;;;5.00;2.72;;;;;;;1.20;56.58;68636.03;5292858;33;33811;-83
2024/01/16 16:53:40;;;;;;;4.00;2.42;;;;;;;1.09;57.12;68624.50;5292867;33;34915;-83
